createdAt,value
2022-12-27T00:01:14.691Z,4.36
2022-12-27T00:03:42.318Z,4.25
2022-12-27T00:06:15.541Z,4.18
2022-12-27T00:08:43.326Z,4.09
2022-12-27T00:11:12.419Z,4.07
2022-12-27T00:13:40.348Z,4.07
2022-12-27T00:16:10.377Z,4.05
2022-12-27T00:18:39.121Z,3.97
2022-12-27T00:21:10.138Z,3.94
2022-12-27T00:23:40.846Z,3.88
2022-12-27T00:26:14.546Z,3.93
2022-12-27T00:28:41.735Z,4.02
2022-12-27T00:31:09.171Z,3.86
2022-12-27T00:33:37.848Z,3.76
2022-12-27T00:36:07.137Z,3.67
2022-12-27T00:38:34.368Z,3.59
2022-12-27T00:41:02.288Z,3.55
2022-12-27T00:43:29.475Z,3.58
2022-12-27T00:45:57.105Z,3.54
2022-12-27T00:48:24.690Z,3.46
2022-12-27T00:50:56.973Z,3.42
2022-12-27T00:53:24.224Z,3.36
2022-12-27T00:55:51.625Z,3.35
2022-12-27T00:58:18.808Z,3.34
2022-12-27T01:00:46.309Z,3.28
2022-12-27T01:03:13.623Z,3.30
2022-12-27T01:05:40.871Z,3.22
2022-12-27T01:08:08.106Z,3.18
2022-12-27T01:10:35.394Z,3.13
2022-12-27T01:13:03.507Z,3.16
2022-12-27T01:15:31.033Z,3.14
2022-12-27T01:17:58.199Z,3.18
2022-12-27T01:20:25.382Z,3.10
2022-12-27T01:22:54.636Z,3.11
2022-12-27T01:25:23.029Z,3.06
2022-12-27T01:27:50.226Z,3.04
2022-12-27T01:30:17.400Z,3.06
2022-12-27T01:32:44.604Z,3.01
2022-12-27T01:35:11.767Z,2.90
2022-12-27T01:37:38.931Z,2.94
2022-12-27T01:40:06.971Z,2.97
2022-12-27T01:42:52.124Z,3.02
2022-12-27T01:45:28.028Z,2.91
2022-12-27T01:48:15.252Z,2.85
2022-12-27T01:51:01.806Z,2.93
2022-12-27T01:53:32.273Z,2.94
2022-12-27T01:56:29.284Z,2.88
2022-12-27T01:59:04.144Z,2.87
2022-12-27T02:01:38.723Z,2.79
2022-12-27T02:04:09.497Z,2.81
2022-12-27T02:06:38.206Z,2.79
2022-12-27T02:09:22.742Z,2.73
2022-12-27T02:11:56.246Z,2.68
2022-12-27T02:14:52.584Z,2.64
2022-12-27T02:17:23.453Z,2.63
2022-12-27T02:20:11.332Z,2.58
2022-12-27T02:23:40.067Z,2.58
2022-12-27T02:26:25.483Z,2.52
2022-12-27T02:29:28.093Z,2.54
2022-12-27T02:32:05.595Z,2.50
2022-12-27T02:34:43.194Z,2.51
2022-12-27T02:37:12.516Z,2.46
2022-12-27T02:39:46.695Z,2.49
2022-12-27T02:42:34.659Z,2.47
2022-12-27T02:45:21.418Z,2.47
2022-12-27T02:48:07.876Z,2.45
2022-12-27T02:51:21.204Z,2.43
2022-12-27T02:53:55.216Z,2.47
2022-12-27T02:56:56.753Z,2.46
2022-12-27T03:00:20.510Z,2.31
2022-12-27T03:03:28.699Z,2.37
2022-12-27T03:06:39.748Z,2.35
2022-12-27T03:10:00.911Z,2.30
2022-12-27T03:13:00.292Z,2.27
2022-12-27T03:15:55.048Z,2.28
2022-12-27T03:18:38.143Z,2.25
2022-12-27T03:21:26.041Z,2.28
2022-12-27T03:24:14.981Z,2.29
2022-12-27T03:26:46.948Z,2.30
2022-12-27T03:29:35.391Z,2.30
2022-12-27T03:32:24.192Z,2.22
2022-12-27T03:34:55.590Z,2.25
2022-12-27T03:37:54.413Z,2.21
2022-12-27T03:41:11.140Z,2.29
2022-12-27T03:43:39.330Z,2.33
2022-12-27T03:46:34.255Z,2.38
2022-12-27T03:49:24.113Z,2.33
2022-12-27T03:52:05.648Z,2.36
2022-12-27T03:54:41.701Z,2.35
2022-12-27T03:57:11.560Z,2.37
2022-12-27T03:59:39.144Z,2.32
2022-12-27T04:02:07.037Z,2.27
2022-12-27T04:04:34.539Z,2.28
2022-12-27T04:07:01.775Z,2.28
2022-12-27T04:09:47.753Z,2.28
2022-12-27T04:12:33.640Z,2.25
2022-12-27T04:15:19.605Z,2.21
2022-12-27T04:18:05.574Z,2.25
2022-12-27T04:20:51.851Z,2.22
2022-12-27T04:23:37.693Z,2.22
2022-12-27T04:26:23.394Z,2.20
2022-12-27T04:29:09.181Z,2.24
2022-12-27T04:31:55.085Z,2.29
2022-12-27T04:34:41.136Z,2.24
2022-12-27T04:37:10.844Z,2.20
2022-12-27T04:39:38.043Z,2.25
2022-12-27T04:42:24.345Z,2.22
2022-12-27T04:45:14.833Z,2.24
2022-12-27T04:48:01.195Z,2.24
2022-12-27T04:50:50.869Z,2.20
2022-12-27T04:53:38.893Z,2.26
2022-12-27T04:56:06.872Z,2.31
2022-12-27T04:58:34.208Z,2.31
2022-12-27T05:01:21.765Z,2.26
2022-12-27T05:03:50.679Z,2.28
2022-12-27T05:06:18.278Z,2.22
2022-12-27T05:09:04.003Z,2.24
2022-12-27T05:11:49.938Z,2.18
2022-12-27T05:14:17.096Z,2.14
2022-12-27T05:16:45.161Z,2.17
2022-12-27T05:19:15.367Z,2.13
2022-12-27T05:22:03.136Z,2.14
2022-12-27T05:24:49.499Z,2.13
2022-12-27T05:27:17.233Z,2.07
2022-12-27T05:29:44.516Z,2.05
2022-12-27T05:32:13.497Z,2.06
2022-12-27T05:34:41.164Z,2.13
2022-12-27T05:37:08.543Z,2.14
2022-12-27T05:39:35.839Z,2.32
2022-12-27T05:42:03.373Z,2.39
2022-12-27T05:44:30.597Z,2.49
2022-12-27T05:46:57.919Z,2.51
2022-12-27T05:49:25.342Z,2.49
2022-12-27T05:51:52.573Z,2.43
2022-12-27T05:54:19.815Z,2.43
2022-12-27T05:56:47.039Z,2.28
2022-12-27T05:59:14.284Z,2.26
2022-12-27T06:01:41.570Z,2.23
2022-12-27T06:04:10.424Z,2.21
2022-12-27T06:06:37.617Z,2.16
2022-12-27T06:09:04.861Z,2.14
2022-12-27T06:11:32.104Z,2.08
2022-12-27T06:13:59.361Z,2.10
2022-12-27T06:16:26.757Z,2.10
2022-12-27T06:18:54.127Z,2.15
2022-12-27T06:21:22.111Z,2.14
2022-12-27T06:23:49.928Z,2.09
2022-12-27T06:26:20.014Z,2.04
2022-12-27T06:28:49.655Z,2.05
2022-12-27T06:31:18.417Z,2.04
2022-12-27T06:33:46.496Z,2.09
2022-12-27T06:36:15.823Z,2.15
2022-12-27T06:38:43.127Z,2.12
2022-12-27T06:41:12.563Z,2.07
2022-12-27T06:43:40.073Z,1.98
2022-12-27T06:46:17.284Z,1.96
2022-12-27T06:48:45.721Z,1.94
2022-12-27T06:51:13.747Z,1.97
2022-12-27T06:53:41.936Z,1.92
2022-12-27T06:56:12.075Z,1.91
2022-12-27T06:58:39.736Z,1.87
2022-12-27T07:01:12.042Z,1.91
2022-12-27T07:03:39.958Z,1.98
2022-12-27T07:06:09.275Z,2.10
2022-12-27T07:08:36.571Z,2.16
2022-12-27T07:11:06.446Z,2.11
2022-12-27T07:13:38.046Z,2.14
2022-12-27T07:16:10.453Z,2.09
2022-12-27T07:18:38.128Z,2.13
2022-12-27T07:21:06.699Z,2.20
2022-12-27T07:23:34.022Z,2.16
2022-12-27T07:26:09.782Z,2.15
2022-12-27T07:28:37.399Z,2.06
2022-12-27T07:31:16.169Z,2.05
2022-12-27T07:33:44.199Z,2.04
2022-12-27T07:36:18.249Z,2.06
2022-12-27T07:38:45.497Z,2.17
2022-12-27T07:41:13.440Z,2.37
2022-12-27T07:43:40.744Z,2.51
2022-12-27T07:46:13.832Z,2.63
2022-12-27T07:48:41.282Z,2.67
2022-12-27T07:51:09.291Z,2.78
2022-12-27T07:53:36.629Z,2.87
2022-12-27T07:56:15.928Z,2.89
2022-12-27T07:58:47.941Z,2.98
2022-12-27T08:01:16.739Z,2.95
2022-12-27T08:03:44.407Z,2.97
2022-12-27T08:06:31.293Z,3.03
2022-12-27T08:08:59.347Z,3.08
2022-12-27T08:11:26.771Z,3.10
2022-12-27T08:13:54.294Z,3.18
2022-12-27T08:16:23.902Z,3.19
2022-12-27T08:18:53.039Z,3.30
2022-12-27T08:21:20.618Z,3.35
2022-12-27T08:23:47.847Z,3.36
2022-12-27T08:26:15.338Z,3.47
2022-12-27T08:28:42.525Z,3.50
2022-12-27T08:31:11.467Z,3.54
2022-12-27T08:33:39.198Z,3.61
2022-12-27T08:36:53.534Z,3.64
2022-12-27T08:38:55.667Z,3.60
2022-12-27T08:41:23.467Z,3.64
2022-12-27T08:43:50.918Z,3.71
2022-12-27T08:46:19.539Z,3.69
2022-12-27T08:48:50.323Z,3.81
2022-12-27T08:51:26.564Z,3.85
2022-12-27T08:53:58.818Z,3.83
2022-12-27T08:56:26.323Z,3.87
2022-12-27T08:58:53.530Z,3.91
2022-12-27T09:01:20.907Z,3.95
2022-12-27T09:03:48.171Z,3.97
2022-12-27T09:06:18.772Z,3.99
2022-12-27T09:08:46.910Z,3.93
2022-12-27T09:11:21.845Z,3.84
2022-12-27T09:13:49.511Z,3.74
2022-12-27T09:16:19.732Z,3.88
2022-12-27T09:18:50.404Z,4.04
2022-12-27T09:21:18.713Z,4.13
2022-12-27T09:23:46.793Z,4.33
2022-12-27T09:26:16.542Z,4.46
2022-12-27T09:28:44.354Z,4.50
2022-12-27T09:31:13.039Z,4.46
2022-12-27T09:33:40.667Z,4.54
2022-12-27T09:36:09.696Z,4.61
2022-12-27T09:38:37.490Z,4.55
2022-12-27T09:41:06.456Z,4.47
2022-12-27T09:43:42.469Z,4.42
2022-12-27T09:46:14.841Z,4.30
2022-12-27T09:48:42.025Z,4.23
2022-12-27T09:51:17.936Z,4.15
2022-12-27T09:53:46.484Z,4.19
2022-12-27T09:56:19.014Z,4.34
2022-12-27T09:59:07.617Z,4.42
2022-12-27T10:01:37.160Z,4.54
2022-12-27T10:04:06.341Z,4.64
2022-12-27T10:06:50.315Z,4.89
2022-12-27T10:09:40.289Z,4.99
2022-12-27T10:12:45.098Z,5.11
2022-12-27T10:15:30.848Z,5.37
2022-12-27T10:18:23.055Z,5.52
2022-12-27T10:21:05.231Z,5.62
2022-12-27T10:23:34.535Z,5.87
2022-12-27T10:26:16.393Z,6.03
2022-12-27T10:28:58.959Z,5.98
2022-12-27T10:31:26.720Z,6.01
2022-12-27T10:33:54.313Z,6.05
2022-12-27T10:36:27.597Z,6.10
2022-12-27T10:38:55.199Z,6.10
2022-12-27T10:41:37.355Z,6.23
2022-12-27T10:44:11.032Z,6.16
2022-12-27T10:46:38.449Z,6.18
2022-12-27T10:49:20.730Z,6.11
2022-12-27T10:51:49.306Z,6.19
2022-12-27T10:54:29.647Z,6.23
2022-12-27T10:56:57.960Z,6.36
2022-12-27T10:59:27.049Z,6.39
2022-12-27T11:02:03.383Z,6.32
2022-12-27T11:04:31.666Z,6.29
2022-12-27T11:07:05.018Z,6.34
2022-12-27T11:09:44.919Z,6.30
2022-12-27T11:12:32.950Z,6.32
2022-12-27T11:15:11.016Z,6.18
2022-12-27T11:17:55.221Z,6.11
2022-12-27T11:20:32.290Z,6.12
2022-12-27T11:23:10.307Z,6.13
2022-12-27T11:26:02.066Z,6.18
2022-12-27T11:28:52.951Z,6.25
2022-12-27T11:31:32.665Z,6.23
2022-12-27T11:34:03.787Z,6.10
2022-12-27T11:36:40.775Z,6.00
2022-12-27T11:39:10.433Z,5.91
2022-12-27T11:41:47.467Z,5.75
2022-12-27T11:44:27.203Z,5.72
2022-12-27T11:47:05.451Z,5.67
2022-12-27T11:49:48.562Z,5.78
2022-12-27T11:52:36.717Z,5.80
2022-12-27T11:55:33.644Z,5.74
2022-12-27T11:58:32.940Z,5.75
2022-12-27T12:01:27.801Z,5.81
2022-12-27T12:04:09.710Z,5.91
2022-12-27T12:07:10.479Z,6.02
2022-12-27T12:10:16.546Z,6.08
2022-12-27T12:13:05.062Z,6.07
2022-12-27T12:15:57.841Z,5.97
2022-12-27T12:18:35.845Z,6.09
2022-12-27T12:21:24.904Z,6.16
2022-12-27T12:24:19.262Z,6.10
2022-12-27T12:27:19.449Z,6.05
2022-12-27T12:30:29.048Z,6.02
2022-12-27T12:32:59.233Z,5.93
2022-12-27T12:35:32.701Z,5.95
2022-12-27T12:38:21.888Z,5.93
2022-12-27T12:41:02.856Z,5.93
2022-12-27T12:44:03.415Z,6.03
2022-12-27T12:47:09.540Z,6.03
2022-12-27T12:50:09.518Z,5.95
2022-12-27T12:53:00.585Z,5.87
2022-12-27T12:55:51.779Z,5.78
2022-12-27T12:58:42.916Z,5.67
2022-12-27T13:01:28.663Z,5.57
2022-12-27T13:04:11.073Z,5.54
2022-12-27T13:06:51.973Z,5.45
2022-12-27T13:09:38.510Z,5.44
2022-12-27T13:12:39.307Z,5.36
2022-12-27T13:15:27.790Z,5.34
2022-12-27T13:18:30.841Z,5.34
2022-12-27T13:21:36.763Z,5.32
2022-12-27T13:24:16.988Z,5.25
2022-12-27T13:27:07.129Z,5.28
2022-12-27T13:30:11.963Z,5.23
2022-12-27T13:33:09.885Z,5.18
2022-12-27T13:36:15.227Z,5.14
2022-12-27T13:39:20.160Z,5.11
2022-12-27T13:42:25.335Z,5.08
2022-12-27T13:45:16.925Z,5.00
2022-12-27T13:47:55.604Z,4.93
2022-12-27T13:50:55.565Z,4.98
2022-12-27T13:53:37.382Z,4.98
2022-12-27T13:56:52.918Z,4.86
2022-12-27T13:59:25.776Z,4.86
2022-12-27T14:02:27.488Z,4.81
2022-12-27T14:05:23.009Z,4.80
2022-12-27T14:08:21.757Z,4.78
2022-12-27T14:10:55.336Z,4.73
2022-12-27T14:13:40.359Z,4.74
2022-12-27T14:16:32.243Z,4.80
2022-12-27T14:19:20.464Z,4.89
2022-12-27T14:22:04.814Z,4.98
2022-12-27T14:24:54.938Z,4.97
2022-12-27T14:27:45.981Z,4.94
2022-12-27T14:30:42.062Z,4.88
2022-12-27T14:33:38.513Z,4.90
2022-12-27T14:36:24.565Z,4.84
2022-12-27T14:39:16.130Z,4.78
2022-12-27T14:42:08.666Z,4.75
2022-12-27T14:44:57.812Z,4.64
2022-12-27T14:48:02.460Z,4.59
2022-12-27T14:51:14.903Z,4.56
2022-12-27T14:54:16.316Z,4.56
2022-12-27T14:57:09.752Z,4.37
2022-12-27T15:00:10.612Z,4.31
2022-12-27T15:03:09.560Z,4.28
2022-12-27T15:05:49.001Z,4.23
2022-12-27T15:08:33.110Z,4.22
2022-12-27T15:11:25.758Z,4.19
2022-12-27T15:14:19.681Z,4.20
2022-12-27T15:17:09.250Z,4.23
2022-12-27T15:20:08.503Z,4.41
2022-12-27T15:22:55.875Z,4.28
2022-12-27T15:25:34.836Z,4.14
2022-12-27T15:28:34.193Z,4.05
2022-12-27T15:31:21.792Z,3.93
2022-12-27T15:34:20.661Z,3.87
2022-12-27T15:36:49.535Z,3.81
2022-12-27T15:39:34.914Z,3.80
2022-12-27T15:42:29.251Z,3.72
2022-12-27T15:45:05.916Z,3.64
2022-12-27T15:47:37.728Z,3.63
2022-12-27T15:50:19.869Z,3.62
2022-12-27T15:52:53.273Z,3.59
2022-12-27T15:55:44.194Z,3.55
2022-12-27T15:58:26.935Z,3.45
2022-12-27T16:01:19.202Z,3.44
2022-12-27T16:03:52.023Z,3.46
2022-12-27T16:06:36.114Z,3.45
2022-12-27T16:09:35.580Z,3.47
2022-12-27T16:12:13.073Z,3.38
2022-12-27T16:14:43.044Z,3.33
2022-12-27T16:17:34.906Z,3.32
2022-12-27T16:20:08.275Z,3.30
2022-12-27T16:22:49.114Z,3.32
2022-12-27T16:25:30.325Z,3.30
2022-12-27T16:28:02.224Z,3.28
2022-12-27T16:30:39.633Z,3.29
2022-12-27T16:33:26.293Z,3.24
2022-12-27T16:36:18.090Z,3.22
2022-12-27T16:38:51.784Z,3.16
2022-12-27T16:41:57.660Z,3.15
2022-12-27T16:44:24.811Z,3.04
2022-12-27T16:47:19.907Z,3.15
2022-12-27T16:50:05.509Z,3.16
2022-12-27T16:53:10.159Z,3.04
2022-12-27T16:56:04.289Z,3.00
2022-12-27T16:58:31.364Z,2.92
2022-12-27T17:01:00.655Z,2.91
2022-12-27T17:03:44.535Z,2.89
2022-12-27T17:06:38.990Z,2.76
2022-12-27T17:09:09.146Z,2.73
2022-12-27T17:11:48.316Z,2.72
2022-12-27T17:14:35.958Z,2.69
2022-12-27T17:17:08.523Z,2.63
2022-12-27T17:19:39.090Z,2.54
2022-12-27T17:22:07.839Z,2.56
2022-12-27T17:24:35.089Z,2.55
2022-12-27T17:27:17.564Z,2.52
2022-12-27T17:30:17.114Z,2.42
2022-12-27T17:33:13.901Z,2.38
2022-12-27T17:35:58.499Z,2.36
2022-12-27T17:38:42.218Z,2.39
2022-12-27T17:41:45.717Z,2.37
2022-12-27T17:44:39.585Z,2.31
2022-12-27T17:47:22.691Z,2.32
2022-12-27T17:49:51.447Z,2.23
2022-12-27T17:52:38.088Z,2.27
2022-12-27T17:55:36.693Z,2.23
2022-12-27T17:58:09.780Z,2.21
2022-12-27T18:00:59.235Z,2.21
2022-12-27T18:03:32.369Z,2.27
2022-12-27T18:05:59.587Z,2.26
2022-12-27T18:08:33.976Z,2.19
2022-12-27T18:11:03.157Z,2.15
2022-12-27T18:13:35.502Z,2.13
2022-12-27T18:16:17.305Z,2.12
2022-12-27T18:18:47.814Z,2.08
2022-12-27T18:21:26.614Z,2.06
2022-12-27T18:23:54.648Z,2.06
2022-12-27T18:26:35.727Z,2.09
2022-12-27T18:29:03.213Z,2.06
2022-12-27T18:31:48.091Z,2.09
2022-12-27T18:34:26.890Z,2.10
2022-12-27T18:37:03.697Z,2.12
2022-12-27T18:39:36.912Z,2.05
2022-12-27T18:42:27.043Z,2.05
2022-12-27T18:44:57.683Z,2.00
2022-12-27T18:47:27.133Z,1.96
2022-12-27T18:49:58.646Z,2.02
2022-12-27T18:52:32.011Z,2.00
2022-12-27T18:55:19.484Z,2.02
2022-12-27T18:57:47.200Z,2.00
2022-12-27T19:00:26.525Z,1.95
2022-12-27T19:02:55.228Z,1.99
2022-12-27T19:05:23.685Z,1.99
2022-12-27T19:07:57.804Z,1.98
2022-12-27T19:10:27.337Z,1.93
2022-12-27T19:12:55.247Z,1.90
2022-12-27T19:15:27.980Z,1.89
2022-12-27T19:18:07.486Z,1.87
2022-12-27T19:20:38.829Z,1.92
2022-12-27T19:23:48.999Z,1.94
2022-12-27T19:26:16.126Z,2.01
2022-12-27T19:28:44.792Z,2.17
2022-12-27T19:31:19.327Z,2.23
2022-12-27T19:33:52.329Z,2.28
2022-12-27T19:36:26.889Z,2.34
2022-12-27T19:38:54.832Z,2.43
2022-12-27T19:41:22.028Z,2.40
2022-12-27T19:43:49.297Z,2.50
2022-12-27T19:46:19.104Z,2.61
2022-12-27T19:49:01.154Z,2.69
2022-12-27T19:51:33.721Z,2.76
2022-12-27T19:54:00.903Z,2.86
2022-12-27T19:56:28.154Z,2.88
2022-12-27T19:58:55.573Z,2.97
2022-12-27T20:01:22.834Z,3.11
2022-12-27T20:03:50.078Z,3.21
2022-12-27T20:06:22.747Z,3.20
2022-12-27T20:08:52.537Z,3.21
2022-12-27T20:11:22.172Z,3.25
2022-12-27T20:13:49.982Z,3.24
2022-12-27T20:16:18.813Z,3.31
2022-12-27T20:18:46.697Z,3.37
2022-12-27T20:21:16.024Z,3.35
2022-12-27T20:23:43.362Z,3.34
2022-12-27T20:26:11.509Z,3.25
2022-12-27T20:28:38.773Z,3.34
2022-12-27T20:31:14.576Z,3.38
2022-12-27T20:33:41.883Z,3.47
2022-12-27T20:36:09.971Z,3.47
2022-12-27T20:38:39.275Z,3.53
2022-12-27T20:41:14.291Z,3.45
2022-12-27T20:43:42.460Z,3.56
2022-12-27T20:46:17.577Z,3.66
2022-12-27T20:48:46.116Z,3.65
2022-12-27T20:51:22.078Z,3.66
2022-12-27T20:53:53.787Z,3.73
2022-12-27T20:56:20.966Z,3.76
2022-12-27T20:58:48.129Z,3.77
2022-12-27T21:01:18.262Z,3.86
2022-12-27T21:03:45.853Z,3.80
2022-12-27T21:06:18.782Z,3.85
2022-12-27T21:08:50.547Z,3.86
2022-12-27T21:11:26.902Z,3.84
2022-12-27T21:13:54.450Z,3.87
2022-12-27T21:16:27.147Z,3.92
2022-12-27T21:18:54.813Z,3.89
2022-12-27T21:21:27.582Z,3.89
2022-12-27T21:23:56.304Z,3.91
2022-12-27T21:26:29.076Z,3.92
2022-12-27T21:28:57.056Z,3.97
2022-12-27T21:31:24.828Z,3.93
2022-12-27T21:33:52.047Z,3.89
2022-12-27T21:36:27.353Z,3.95
2022-12-27T21:38:55.314Z,3.93
2022-12-27T21:41:24.791Z,3.92
2022-12-27T21:43:52.006Z,3.97
2022-12-27T21:46:22.276Z,3.89
2022-12-27T21:48:54.704Z,3.95
2022-12-27T21:51:22.167Z,4.03
2022-12-27T21:53:49.582Z,4.01
2022-12-27T21:56:17.282Z,3.91
2022-12-27T21:58:45.044Z,3.96
2022-12-27T22:01:16.072Z,3.99
2022-12-27T22:03:46.234Z,3.95
2022-12-27T22:06:19.054Z,3.98
2022-12-27T22:08:48.277Z,3.99
2022-12-27T22:11:15.867Z,4.04
2022-12-27T22:13:43.616Z,4.00
2022-12-27T22:16:24.927Z,3.99
2022-12-27T22:18:52.614Z,3.80
2022-12-27T22:21:24.964Z,3.79
2022-12-27T22:23:53.856Z,3.74
2022-12-27T22:26:30.424Z,3.62
2022-12-27T22:28:58.061Z,3.68
2022-12-27T22:31:27.625Z,3.62
2022-12-27T22:33:54.863Z,3.59
2022-12-27T22:36:23.803Z,3.43
2022-12-27T22:38:53.551Z,3.44
2022-12-27T22:41:25.869Z,3.35
2022-12-27T22:43:58.731Z,3.33
2022-12-27T22:46:27.072Z,3.37
2022-12-27T22:48:56.385Z,3.44
2022-12-27T22:51:26.963Z,3.57
2022-12-27T22:53:55.300Z,3.62
2022-12-27T22:56:28.020Z,3.65
2022-12-27T22:58:55.662Z,3.72
2022-12-27T23:01:28.692Z,3.76
2022-12-27T23:03:56.835Z,3.75
2022-12-27T23:06:28.241Z,3.77
2022-12-27T23:08:55.842Z,3.75
2022-12-27T23:11:25.401Z,3.78
2022-12-27T23:14:01.566Z,3.84
2022-12-27T23:16:30.005Z,3.88
2022-12-27T23:18:57.173Z,3.82
2022-12-27T23:21:24.944Z,3.91
2022-12-27T23:23:52.890Z,3.93
2022-12-27T23:26:21.884Z,3.93
2022-12-27T23:28:50.443Z,3.94
2022-12-27T23:31:18.294Z,3.91
2022-12-27T23:33:45.754Z,3.89
2022-12-27T23:36:13.170Z,3.93
2022-12-27T23:38:41.795Z,3.92
2022-12-27T23:41:10.969Z,4.05
2022-12-27T23:43:52.217Z,3.98
2022-12-27T23:46:20.224Z,3.97
2022-12-27T23:48:47.867Z,3.99
2022-12-27T23:51:18.392Z,4.02
2022-12-27T23:53:45.969Z,4.05
2022-12-27T23:56:20.037Z,4.04
2022-12-27T23:58:47.766Z,4.04
